Time;durP1;ratioP1;P1;durP2;ratioP2;P2;SDS_P1;SDS_P2;PMS_P1;PMS_P2;Temp;Humidity;BMP_temperature;BMP_pressure;BME280_temperature;BME280_humidity;BME280_pressure;Samples;Min_cycle;Max_cycle;Signal;HPM_P1;HPM_P2
2022/04/01 00:00:48;;;;;;;41.97;24.63;;;;;;;1.71;100.00;91021.69;2106207;28;20055;-81
2022/04/01 00:01:49;;;;;;;40.85;23.98;;;;;;;1.74;100.00;91020.88;2106117;28;20447;-81
2022/04/01 00:02:50;;;;;;;41.50;23.77;;;;;;;1.68;100.00;91019.91;2107451;28;20077;-81
2022/04/01 00:03:51;;;;;;;38.63;23.58;;;;;;;1.71;100.00;91016.44;2110871;28;20116;-82
2022/04/01 00:04:52;;;;;;;38.28;22.58;;;;;;;1.83;100.00;91020.31;2106326;28;20030;-82
2022/04/01 00:05:53;;;;;;;38.10;22.83;;;;;;;1.76;100.00;91014.06;2097506;28;20425;-82
2022/04/01 00:06:54;;;;;;;41.75;23.90;;;;;;;1.84;100.00;91013.88;2107179;28;20012;-82
2022/04/01 00:07:55;;;;;;;37.60;22.40;;;;;;;1.85;100.00;91013.50;2113108;28;20481;-80
2022/04/01 00:08:56;;;;;;;35.30;23.15;;;;;;;1.95;100.00;91014.38;2098055;28;20543;-82
2022/04/01 00:09:57;;;;;;;37.38;23.55;;;;;;;1.77;100.00;91022.72;2106155;28;20050;-82
2022/04/01 00:10:58;;;;;;;35.70;21.92;;;;;;;1.84;100.00;91014.63;2112262;27;20023;-82
2022/04/01 00:11:59;;;;;;;37.80;23.15;;;;;;;1.94;100.00;91015.56;2105260;28;20020;-82
2022/04/01 00:13:00;;;;;;;37.30;22.20;;;;;;;1.91;100.00;91014.47;2101312;28;20020;-83
2022/04/01 00:14:01;;;;;;;36.80;22.48;;;;;;;1.92;100.00;91015.94;2097829;28;20073;-81
2022/04/01 00:15:02;;;;;;;41.35;22.98;;;;;;;1.87;100.00;91018.34;2097793;28;20485;-83
2022/04/01 00:16:05;;;;;;;39.75;24.20;;;;;;;1.94;100.00;91021.56;2095233;28;20013;-82
2022/04/01 00:17:06;;;;;;;38.58;23.08;;;;;;;1.84;100.00;91016.53;2097678;28;20017;-81
2022/04/01 00:18:07;;;;;;;40.08;23.80;;;;;;;1.83;100.00;91010.50;2097776;28;20020;-80
2022/04/01 00:19:08;;;;;;;37.78;24.23;;;;;;;1.79;100.00;91020.38;2097875;28;20020;-82
2022/04/01 00:20:10;;;;;;;38.28;23.38;;;;;;;1.92;100.00;91023.84;2110198;28;20036;-82
2022/04/01 00:21:11;;;;;;;38.80;23.33;;;;;;;2.05;100.00;91026.56;2097987;28;20024;-81
2022/04/01 00:22:12;;;;;;;40.28;23.80;;;;;;;2.00;100.00;91022.53;2098459;28;20162;-81
2022/04/01 00:23:14;;;;;;;44.10;24.50;;;;;;;1.82;100.00;91014.31;2104696;28;20020;-80
2022/04/01 00:24:15;;;;;;;41.67;23.67;;;;;;;1.93;100.00;91014.03;2112932;28;20019;-83
2022/04/01 00:25:16;;;;;;;36.63;23.30;;;;;;;1.82;100.00;91016.94;2106353;28;20062;-80
2022/04/01 00:26:17;;;;;;;47.05;25.15;;;;;;;1.93;100.00;91014.81;2112573;28;20015;-83
2022/04/01 00:27:18;;;;;;;40.30;23.98;;;;;;;1.86;100.00;91014.22;2106061;28;20047;-80
2022/04/01 00:28:19;;;;;;;40.58;25.00;;;;;;;1.84;100.00;91019.91;2105739;28;20058;-82
2022/04/01 00:29:20;;;;;;;40.10;24.40;;;;;;;1.81;100.00;91018.09;2112626;27;20116;-82
2022/04/01 00:30:21;;;;;;;42.65;24.20;;;;;;;1.69;100.00;91011.59;2106210;28;20020;-81
2022/04/01 00:31:22;;;;;;;42.03;24.33;;;;;;;1.66;100.00;91017.66;2104596;28;20016;-81
2022/04/01 00:32:24;;;;;;;39.28;23.95;;;;;;;1.69;100.00;91021.38;2099101;28;20822;-81
2022/04/01 00:33:24;;;;;;;40.97;24.38;;;;;;;1.83;100.00;91021.06;2107955;28;20026;-80
2022/04/01 00:34:31;;;;;;;41.13;25.45;;;;;;;1.74;100.00;91015.63;2104593;28;20039;-81
2022/04/01 00:35:32;;;;;;;39.50;23.80;;;;;;;1.87;100.00;91013.81;2105425;28;20512;-81
2022/04/01 00:36:35;;;;;;;36.92;23.55;;;;;;;1.81;100.00;91012.84;2105461;28;20366;-82
2022/04/01 00:37:38;;;;;;;41.63;24.70;;;;;;;1.98;100.00;91016.22;2105714;28;20020;-80
2022/04/01 00:38:39;;;;;;;42.67;24.88;;;;;;;2.13;100.00;91016.59;2098249;28;20021;-84
2022/04/01 00:39:40;;;;;;;43.08;24.70;;;;;;;1.98;100.00;91010.94;2113744;28;20058;-82
2022/04/01 00:40:41;;;;;;;44.30;25.40;;;;;;;1.98;100.00;91014.31;2106046;28;20358;-82
2022/04/01 00:41:46;;;;;;;44.97;25.92;;;;;;;1.86;100.00;91014.22;2104914;28;20063;-81
2022/04/01 00:42:47;;;;;;;48.40;27.23;;;;;;;2.03;100.00;91020.25;2110228;28;20024;-82
2022/04/01 00:44:17;;;;;;;46.63;26.80;;;;;;;2.01;100.00;91020.63;2113821;27;20102;-81
2022/04/01 00:45:18;;;;;;;41.80;25.20;;;;;;;1.89;100.00;91019.41;2121926;27;20030;-81
2022/04/01 00:46:19;;;;;;;47.38;25.92;;;;;;;1.93;100.00;91019.31;2112432;28;20024;-81
2022/04/01 00:47:20;;;;;;;45.13;26.38;;;;;;;1.88;100.00;91019.81;2106074;28;20114;-82
2022/04/01 00:48:22;;;;;;;43.47;26.80;;;;;;;1.83;100.00;91018.41;2106584;28;20027;-80
2022/04/01 00:49:26;;;;;;;43.42;25.63;;;;;;;1.78;100.00;91013.66;2104762;27;20019;-80
2022/04/01 00:50:32;;;;;;;49.92;27.85;;;;;;;1.74;100.00;91015.63;2118699;27;20026;-81
2022/04/01 00:51:33;;;;;;;45.78;27.90;;;;;;;1.62;100.00;91014.38;2106452;28;20016;-80
2022/04/01 00:52:35;;;;;;;47.38;26.30;;;;;;;1.87;100.00;91020.97;2105756;28;20063;-79
2022/04/01 00:53:36;;;;;;;44.78;25.98;;;;;;;1.78;100.00;91016.28;2104375;28;20033;-82
2022/04/01 00:54:38;;;;;;;44.88;26.10;;;;;;;1.79;100.00;91017.03;2106334;28;20023;-80
2022/04/01 00:55:40;;;;;;;45.85;26.92;;;;;;;1.79;100.00;91015.13;2105919;28;20020;-82
2022/04/01 00:56:42;;;;;;;46.38;26.70;;;;;;;1.83;100.00;91017.69;2104473;27;20041;-83
2022/04/01 00:57:46;;;;;;;42.97;26.60;;;;;;;1.82;100.00;91022.22;2105258;28;20024;-80
2022/04/01 00:58:50;;;;;;;43.38;25.15;;;;;;;1.93;100.00;91024.59;2106678;28;20020;-83
2022/04/01 00:59:52;;;;;;;43.33;26.55;;;;;;;1.93;100.00;91020.09;2106057;27;20035;-81
2022/04/01 01:00:53;;;;;;;47.10;27.10;;;;;;;1.90;100.00;91020.91;2106316;28;20110;-81
2022/04/01 01:01:55;;;;;;;43.75;26.23;;;;;;;1.89;100.00;91018.66;2104666;28;20518;-81
2022/04/01 01:02:57;;;;;;;42.47;25.98;;;;;;;1.88;100.00;91014.56;2097816;28;20511;-80
2022/04/01 01:04:04;;;;;;;40.28;24.83;;;;;;;2.17;100.00;91020.63;2097430;28;20112;-80
2022/04/01 01:05:06;;;;;;;38.85;24.23;;;;;;;1.97;100.00;91014.72;2107092;27;20491;-83
2022/04/01 01:06:08;;;;;;;39.60;24.95;;;;;;;1.97;100.00;91015.44;2105531;28;20016;-83
2022/04/01 01:07:09;;;;;;;39.58;24.88;;;;;;;2.00;100.00;91014.63;2105743;28;20020;-80
2022/04/01 01:08:10;;;;;;;44.80;26.40;;;;;;;1.80;100.00;91013.22;2103120;28;20750;-80
2022/04/01 01:09:13;;;;;;;51.80;27.92;;;;;;;1.74;100.00;91011.09;2105382;28;20020;-81
2022/04/01 01:10:18;;;;;;;44.17;24.85;;;;;;;1.93;100.00;91009.53;2103987;28;20031;-81
2022/04/01 01:11:20;;;;;;;43.88;25.83;;;;;;;1.86;100.00;91012.34;2105484;28;20081;-80
2022/04/01 01:12:21;;;;;;;41.75;25.27;;;;;;;1.76;100.00;91008.81;2106396;28;20466;-80
2022/04/01 01:13:29;;;;;;;44.42;25.23;;;;;;;1.96;100.00;91016.59;2107359;28;20401;-81
2022/04/01 01:14:33;;;;;;;39.47;24.05;;;;;;;1.93;100.00;91012.19;2099280;28;20058;-81
2022/04/01 01:15:37;;;;;;;40.17;25.02;;;;;;;2.00;100.00;91014.63;2096745;28;20028;-81
2022/04/01 01:16:44;;;;;;;42.47;25.67;;;;;;;2.00;100.00;91014.63;2096813;28;20111;-80
2022/04/01 01:17:46;;;;;;;37.95;22.90;;;;;;;1.90;100.00;91015.63;2105103;28;20023;-81
2022/04/01 01:19:04;;;;;;;43.75;24.98;;;;;;;1.74;100.00;91013.72;2097300;28;20070;-80
2022/04/01 01:20:12;;;;;;;42.13;24.88;;;;;;;1.72;100.00;91015.31;2101346;28;20056;-79
2022/04/01 01:21:14;;;;;;;42.50;23.67;;;;;;;1.90;100.00;91015.63;2099338;28;20025;-80
2022/04/01 01:22:15;;;;;;;40.85;24.35;;;;;;;1.83;100.00;91013.16;2105395;28;20043;-80
2022/04/01 01:23:15;;;;;;;47.75;24.40;;;;;;;1.89;100.00;91016.78;2105103;28;20031;-80
2022/04/01 01:24:17;;;;;;;41.53;25.15;;;;;;;1.82;100.00;91010.94;2103746;28;20016;-82
2022/04/01 01:25:18;;;;;;;44.35;24.20;;;;;;;1.89;100.00;91008.13;2096524;28;20467;-81
2022/04/01 01:26:19;;;;;;;48.45;25.98;;;;;;;1.90;100.00;91005.09;2097268;28;20028;-82
2022/04/01 01:27:21;;;;;;;40.53;23.88;;;;;;;1.79;100.00;91001.97;2096512;28;20024;-84
2022/04/01 01:28:24;;;;;;;42.90;24.08;;;;;;;1.77;100.00;91009.53;2104787;28;20024;-80
2022/04/01 01:29:30;;;;;;;39.97;24.52;;;;;;;1.77;100.00;91005.00;2111845;27;20058;-80
2022/04/01 01:30:31;;;;;;;37.83;23.13;;;;;;;1.80;100.00;91000.81;2109945;28;20469;-81
2022/04/01 01:31:32;;;;;;;43.00;24.55;;;;;;;1.72;100.00;90996.88;2106770;28;20059;-82
2022/04/01 01:32:35;;;;;;;39.95;24.48;;;;;;;1.76;100.00;91002.81;2105665;28;20038;-81
2022/04/01 01:33:36;;;;;;;38.88;23.40;;;;;;;1.81;100.00;90998.94;2110409;28;20030;-81
2022/04/01 01:34:41;;;;;;;40.25;23.92;;;;;;;1.98;100.00;90997.75;2122887;27;20027;-80
2022/04/01 01:35:42;;;;;;;37.47;23.08;;;;;;;1.95;100.00;90996.69;2113167;28;20027;-82
2022/04/01 01:36:43;;;;;;;39.70;24.65;;;;;;;1.91;100.00;91001.28;2097356;28;20456;-81
2022/04/01 01:37:45;;;;;;;39.42;24.15;;;;;;;1.82;100.00;91001.13;2097598;28;20490;-81
2022/04/01 01:38:46;;;;;;;37.95;22.55;;;;;;;1.84;100.00;90998.09;2103511;27;20020;-81
2022/04/01 01:40:00;;;;;;;36.72;22.55;;;;;;;1.96;100.00;90995.53;2103067;28;20032;-81
2022/04/01 01:41:02;;;;;;;39.55;23.58;;;;;;;2.09;100.00;90995.59;2102059;28;20105;-79
2022/04/01 01:42:03;;;;;;;38.10;21.50;;;;;;;1.95;100.00;90994.06;2097975;28;20028;-80
2022/04/01 01:43:04;;;;;;;37.30;22.80;;;;;;;2.02;100.00;90995.78;2097674;28;20032;-80
2022/04/01 01:44:05;;;;;;;38.35;22.73;;;;;;;2.03;100.00;90999.16;2111613;28;20031;-81
2022/04/01 01:45:07;;;;;;;34.97;20.15;;;;;;;2.06;100.00;90991.16;2098206;28;20019;-81
2022/04/01 01:46:09;;;;;;;34.17;21.67;;;;;;;2.05;100.00;90996.84;2106251;28;20389;-81
2022/04/01 01:47:10;;;;;;;35.45;22.58;;;;;;;2.19;100.00;91002.50;2097762;28;20025;-81
2022/04/01 01:48:11;;;;;;;34.55;20.48;;;;;;;2.01;100.00;91002.19;2096521;28;20139;-81
2022/04/01 01:49:12;;;;;;;29.23;19.73;;;;;;;1.96;100.00;90992.91;2104818;28;20024;-82
2022/04/01 01:55:44;;;;;;;31.30;19.38;;;;;;;1.89;100.00;90993.09;2110930;28;20055;-80
2022/04/01 01:56:46;;;;;;;36.50;21.58;;;;;;;1.78;100.00;90997.84;2102352;28;20035;-82
2022/04/01 01:57:47;;;;;;;35.78;21.27;;;;;;;1.87;100.00;90998.00;2095109;28;20035;-81
2022/04/01 01:58:48;;;;;;;30.48;20.40;;;;;;;1.82;100.00;90995.88;2105172;28;20123;-80
2022/04/01 01:59:50;;;;;;;34.67;21.58;;;;;;;1.92;100.00;91002.78;2114273;27;20106;-82
2022/04/01 02:00:52;;;;;;;36.38;20.88;;;;;;;1.82;100.00;90995.13;2107297;28;20580;-82
2022/04/01 02:01:53;;;;;;;36.85;21.60;;;;;;;1.99;100.00;91001.88;2105708;28;20165;-79
2022/04/01 02:02:56;;;;;;;34.00;20.42;;;;;;;1.97;100.00;91004.16;2105911;28;20484;-81
2022/04/01 02:03:58;;;;;;;32.05;21.15;;;;;;;1.88;100.00;90994.22;2106084;28;20133;-82
2022/04/01 02:04:59;;;;;;;32.90;20.38;;;;;;;1.90;100.00;91007.72;2105935;28;20020;-82
2022/04/01 02:06:00;;;;;;;30.08;19.95;;;;;;;1.77;100.00;91004.28;2105708;28;20663;-80
2022/04/01 02:07:02;;;;;;;32.60;20.08;;;;;;;1.91;100.00;90996.03;2097464;28;20024;-81
2022/04/01 02:08:05;;;;;;;35.85;20.35;;;;;;;1.87;100.00;91000.63;2092152;28;20121;-80
2022/04/01 02:09:06;;;;;;;30.52;19.52;;;;;;;1.86;100.00;90993.91;2103462;28;20473;-80
2022/04/01 02:10:07;;;;;;;37.67;20.67;;;;;;;1.68;100.00;90996.22;2114171;28;20027;-81
2022/04/01 02:12:21;;;;;;;;;;;;;;;1.58;100.00;90994.53;2144213;27;20121;-83
2022/04/01 02:13:23;;;;;;;30.92;18.40;;;;;;;1.63;100.00;90984.28;2117981;28;19911;-82
2022/04/01 02:14:25;;;;;;;31.38;19.55;;;;;;;1.73;100.00;90988.56;2096855;28;20105;-83
2022/04/01 02:15:26;;;;;;;29.75;18.42;;;;;;;1.73;100.00;90987.81;2104933;28;20085;-82
2022/04/01 02:16:27;;;;;;;36.92;20.85;;;;;;;1.69;100.00;90987.88;2104609;28;20016;-84
2022/04/01 02:17:28;;;;;;;32.92;21.27;;;;;;;1.70;100.00;90981.47;2113122;28;20035;-83
2022/04/01 02:18:29;;;;;;;35.17;21.48;;;;;;;1.60;100.00;90985.09;2111473;28;20046;-81
2022/04/01 02:19:31;;;;;;;35.40;21.38;;;;;;;1.63;100.00;90979.00;2113052;28;20020;-82
2022/04/01 02:20:33;;;;;;;37.65;22.08;;;;;;;1.57;100.00;90991.19;2104748;28;20024;-83
2022/04/01 02:21:35;;;;;;;36.35;21.10;;;;;;;1.70;100.00;90996.53;2102389;28;20025;-82
2022/04/01 02:22:37;;;;;;;33.42;20.48;;;;;;;1.61;100.00;90991.84;2097713;28;20036;-83
2022/04/01 02:23:38;;;;;;;33.67;21.50;;;;;;;1.67;100.00;90987.56;2099383;28;20028;-82
2022/04/01 02:24:41;;;;;;;35.70;21.65;;;;;;;1.62;100.00;90982.78;2096529;28;20031;-83
2022/04/01 02:25:43;;;;;;;32.03;21.38;;;;;;;1.64;100.00;90987.66;2104864;28;20016;-82
2022/04/01 02:26:47;;;;;;;37.88;23.45;;;;;;;1.63;100.00;90991.44;2112569;27;20021;-82
2022/04/01 02:27:49;;;;;;;37.22;21.77;;;;;;;1.63;100.00;90986.19;2113995;28;20024;-83
2022/04/01 02:28:50;;;;;;;32.20;21.10;;;;;;;1.59;100.00;90982.88;2102335;28;20028;-82
2022/04/01 02:29:51;;;;;;;33.65;20.77;;;;;;;1.73;100.00;90979.91;2104647;28;20070;-82
2022/04/01 02:30:51;;;;;;;32.55;19.88;;;;;;;1.82;100.00;90981.97;2104033;28;20012;-82
2022/04/01 02:31:53;;;;;;;34.38;20.70;;;;;;;1.78;100.00;90987.31;2117949;28;20038;-81
2022/04/01 02:32:53;;;;;;;34.47;20.88;;;;;;;1.78;100.00;90989.94;2112883;28;20020;-83
2022/04/01 02:33:54;;;;;;;31.88;20.92;;;;;;;1.77;100.00;90980.56;2102290;28;20025;-81
2022/04/01 02:34:55;;;;;;;30.48;19.92;;;;;;;1.80;100.00;90984.25;2104693;28;20024;-82
2022/04/01 02:35:57;;;;;;;38.50;20.63;;;;;;;1.68;100.00;90980.41;2108164;28;20029;-81
2022/04/01 02:36:59;;;;;;;35.60;20.73;;;;;;;1.72;100.00;90984.44;2104792;28;20035;-80
2022/04/01 02:38:01;;;;;;;33.85;21.17;;;;;;;1.65;100.00;90981.97;2099110;28;20032;-83
2022/04/01 02:39:03;;;;;;;35.03;20.33;;;;;;;1.54;100.00;90992.00;2098566;28;20019;-82
2022/04/01 02:40:04;;;;;;;31.83;19.10;;;;;;;1.85;100.00;90979.25;2101430;28;20035;-83
2022/04/01 02:41:07;;;;;;;31.40;20.50;;;;;;;1.73;100.00;90985.19;2119780;27;20043;-83
2022/04/01 02:42:20;;;;;;;34.80;20.83;;;;;;;1.65;100.00;90987.22;2121150;28;20016;-82
2022/04/01 02:43:22;;;;;;;29.63;19.45;;;;;;;1.74;100.00;90990.03;2106132;27;20065;-84
2022/04/01 02:44:23;;;;;;;31.17;19.80;;;;;;;1.58;100.00;90987.41;2121127;27;20427;-84
2022/04/01 02:45:24;;;;;;;32.63;20.13;;;;;;;1.56;100.00;90983.69;2117283;28;20024;-82
2022/04/01 02:46:25;;;;;;;34.80;21.20;;;;;;;1.56;100.00;90986.34;2111878;28;20162;-82
2022/04/01 02:47:26;;;;;;;35.00;19.98;;;;;;;1.56;100.00;90991.59;2117476;28;20451;-83
2022/04/01 02:48:27;;;;;;;29.38;19.23;;;;;;;1.48;100.00;90991.00;2105697;27;20024;-83
2022/04/01 02:49:29;;;;;;;33.72;20.35;;;;;;;1.35;100.00;90993.53;2112867;28;20020;-82
2022/04/01 02:50:30;;;;;;;32.75;19.25;;;;;;;1.62;100.00;90987.31;2112617;28;20111;-82
2022/04/01 02:51:32;;;;;;;33.60;19.52;;;;;;;1.64;100.00;90992.91;2112556;28;20080;-84
2022/04/01 02:52:33;;;;;;;34.15;21.30;;;;;;;1.52;100.00;90981.13;2112778;28;20023;-84
2022/04/01 02:53:34;;;;;;;34.50;20.52;;;;;;;1.71;100.00;90982.97;2104241;28;20019;-81
2022/04/01 02:54:35;;;;;;;34.75;20.05;;;;;;;1.64;100.00;90988.38;2104481;28;20028;-83
2022/04/01 02:55:37;;;;;;;31.35;18.95;;;;;;;1.64;100.00;90988.38;2100103;28;20028;-82
2022/04/01 02:56:39;;;;;;;32.30;19.98;;;;;;;1.70;100.00;90986.00;2091670;28;20022;-83
2022/04/01 02:57:40;;;;;;;31.42;19.15;;;;;;;1.49;100.00;90984.59;2102663;28;20047;-81
2022/04/01 02:58:41;;;;;;;33.20;20.35;;;;;;;1.41;100.00;90981.41;2102907;28;20016;-82
2022/04/01 02:59:42;;;;;;;34.80;20.42;;;;;;;1.42;100.00;90988.13;2117109;27;20023;-83
2022/04/01 03:00:43;;;;;;;34.13;20.00;;;;;;;1.48;100.00;90983.13;2111049;28;20012;-83
2022/04/01 03:01:44;;;;;;;34.50;19.55;;;;;;;1.44;100.00;90987.72;2098193;28;20021;-81
2022/04/01 03:02:48;;;;;;;31.60;19.52;;;;;;;1.43;100.00;90983.59;2105721;28;20016;-83
2022/04/01 03:03:48;;;;;;;31.63;19.63;;;;;;;1.43;100.00;90986.25;2109638;28;20027;-84
2022/04/01 03:04:49;;;;;;;31.25;19.40;;;;;;;1.33;100.00;90982.69;2112452;28;20079;-81
2022/04/01 03:05:50;;;;;;;32.67;20.38;;;;;;;1.42;100.00;90977.59;2095031;28;20024;-83
2022/04/01 03:06:51;;;;;;;30.38;19.55;;;;;;;1.39;100.00;90983.69;2095800;28;20055;-82
2022/04/01 03:07:53;;;;;;;31.13;18.85;;;;;;;1.41;100.00;90984.03;2095718;28;20021;-82
2022/04/01 03:08:53;;;;;;;32.97;19.80;;;;;;;1.42;100.00;90990.75;2099891;28;20107;-84
2022/04/01 03:09:54;;;;;;;35.45;19.63;;;;;;;1.33;100.00;90990.59;2098318;28;20020;-82
2022/04/01 03:10:58;;;;;;;34.15;19.83;;;;;;;1.32;100.00;90986.50;2104016;28;20012;-83
2022/04/01 03:12:00;;;;;;;30.33;18.40;;;;;;;1.33;100.00;90998.50;2099873;28;20098;-82
2022/04/01 03:13:01;;;;;;;36.83;19.95;;;;;;;1.33;100.00;90993.22;2088552;28;20028;-83
2022/04/01 03:14:08;;;;;;;35.85;20.25;;;;;;;1.29;100.00;90989.19;2106664;28;20027;-82
2022/04/01 03:15:09;;;;;;;39.20;20.70;;;;;;;1.20;100.00;90990.50;2106783;28;20059;-84
2022/04/01 03:16:12;;;;;;;31.42;19.10;;;;;;;1.20;100.00;90992.38;2101312;28;20025;-82
2022/04/01 03:17:13;;;;;;;35.22;19.67;;;;;;;1.18;100.00;90992.03;2115565;28;20571;-82
2022/04/01 03:18:14;;;;;;;34.42;18.98;;;;;;;1.16;100.00;90997.72;2117446;28;20027;-84
2022/04/01 03:19:16;;;;;;;33.75;19.73;;;;;;;1.42;100.00;90990.75;2101529;28;20027;-82
2022/04/01 03:20:17;;;;;;;32.60;18.88;;;;;;;1.39;100.00;90999.47;2095880;28;20083;-82
2022/04/01 03:21:18;;;;;;;40.47;18.70;;;;;;;1.40;100.00;90992.31;2106033;28;20031;-81
2022/04/01 03:22:20;;;;;;;31.10;18.80;;;;;;;1.31;100.00;90984.25;2095944;28;20520;-82
2022/04/01 03:23:21;;;;;;;32.47;17.45;;;;;;;1.20;100.00;90987.84;2091263;28;20067;-82
2022/04/01 03:24:22;;;;;;;32.45;17.42;;;;;;;1.23;100.00;90992.31;2103760;28;20016;-83
2022/04/01 03:25:23;;;;;;;29.95;17.20;;;;;;;1.29;100.00;90992.56;2110745;28;20107;-83
2022/04/01 03:26:24;;;;;;;41.42;16.00;;;;;;;1.13;100.00;90992.53;2096809;28;20016;-82
2022/04/01 03:27:25;;;;;;;28.05;16.52;;;;;;;1.18;100.00;90984.13;2097166;28;20025;-84
2022/04/01 03:28:26;;;;;;;33.58;16.13;;;;;;;1.17;100.00;90986.03;2090306;28;20028;-83
2022/04/01 03:29:28;;;;;;;26.30;16.45;;;;;;;1.25;100.00;90990.00;2090068;28;20020;-83
2022/04/01 03:30:29;;;;;;;33.03;16.02;;;;;;;1.26;100.00;90991.47;2082394;28;20364;-84
2022/04/01 03:31:31;;;;;;;28.58;16.67;;;;;;;1.36;100.00;90991.66;2097212;28;20027;-83
2022/04/01 03:32:32;;;;;;;28.33;15.23;;;;;;;1.39;100.00;90988.94;2089340;28;20025;-82
2022/04/01 03:33:33;;;;;;;24.80;16.02;;;;;;;1.28;100.00;90996.34;2098610;28;20385;-82
2022/04/01 03:34:34;;;;;;;22.13;15.02;;;;;;;1.37;100.00;90991.25;2098568;28;20102;-83
2022/04/01 03:35:35;;;;;;;23.35;14.60;;;;;;;1.64;100.00;90991.03;2086252;28;20017;-85
2022/04/01 03:36:36;;;;;;;23.17;14.52;;;;;;;1.64;100.00;90988.38;2086806;28;20033;-84
2022/04/01 03:37:37;;;;;;;26.20;13.93;;;;;;;1.38;100.00;90992.72;2096064;28;20112;-81
2022/04/01 03:38:39;;;;;;;22.58;15.05;;;;;;;1.34;100.00;90986.81;2095356;28;20025;-82
2022/04/01 03:39:41;;;;;;;20.02;14.35;;;;;;;1.43;100.00;90989.59;2082186;28;20029;-83
2022/04/01 03:40:47;;;;;;;22.23;14.02;;;;;;;1.37;100.00;90988.63;2083078;28;20028;-84
2022/04/01 03:41:50;;;;;;;26.17;15.27;;;;;;;1.33;100.00;90985.34;2093648;28;20507;-83
2022/04/01 03:42:51;;;;;;;22.35;14.65;;;;;;;1.29;100.00;90986.56;2101160;28;20104;-82
2022/04/01 03:43:54;;;;;;;23.30;14.77;;;;;;;1.19;100.00;90993.53;2101278;28;20032;-84
2022/04/01 03:44:55;;;;;;;20.88;13.75;;;;;;;1.22;100.00;90985.53;2092113;28;20078;-84
2022/04/01 03:45:58;;;;;;;23.40;14.57;;;;;;;1.17;100.00;90990.56;2082753;28;20029;-83
2022/04/01 03:47:08;;;;;;;22.77;13.98;;;;;;;1.16;100.00;90989.81;2082460;28;20025;-82
2022/04/01 03:48:29;;;;;;;20.85;14.10;;;;;;;1.26;100.00;90980.22;2089587;28;20052;-83
2022/04/01 03:49:33;;;;;;;20.80;12.40;;;;;;;1.26;100.00;90991.47;2090452;28;20028;-82
2022/04/01 03:50:34;;;;;;;22.25;13.88;;;;;;;1.28;100.00;90990.34;2100841;27;20548;-83
2022/04/01 03:51:38;;;;;;;20.17;13.52;;;;;;;1.49;100.00;90987.97;2100995;28;20073;-83
2022/04/01 03:52:45;;;;;;;21.63;14.07;;;;;;;1.54;100.00;90994.66;2074320;28;20030;-84
2022/04/01 03:53:58;;;;;;;21.63;13.52;;;;;;;1.50;100.00;90999.25;2091413;28;20017;-84
2022/04/01 03:55:04;;;;;;;20.67;12.57;;;;;;;1.63;100.00;91001.97;2089127;28;20024;-82
2022/04/01 03:56:06;;;;;;;20.00;12.55;;;;;;;1.59;100.00;90994.16;2087232;28;20017;-82
2022/04/01 03:57:08;;;;;;;18.95;12.90;;;;;;;1.55;100.00;90998.75;2088781;28;20029;-83
2022/04/01 03:58:13;;;;;;;18.90;12.90;;;;;;;1.50;100.00;90999.25;2095353;28;20025;-82
2022/04/01 03:59:17;;;;;;;21.80;12.10;;;;;;;1.38;100.00;90997.25;2090834;28;20470;-83
2022/04/01 04:00:18;;;;;;;19.40;11.15;;;;;;;1.45;100.00;90994.47;2097419;28;20024;-84
2022/04/01 04:01:19;;;;;;;19.33;12.40;;;;;;;1.45;100.00;90991.84;2083143;28;20022;-84
2022/04/01 04:02:21;;;;;;;21.58;13.60;;;;;;;1.33;100.00;90987.97;2087221;28;20039;-83
2022/04/01 04:03:23;;;;;;;20.15;12.27;;;;;;;1.26;100.00;90990.75;2085481;28;20052;-85
2022/04/01 04:04:25;;;;;;;23.08;13.75;;;;;;;1.32;100.00;90988.34;2088279;28;20108;-82
2022/04/01 04:05:30;;;;;;;18.63;12.25;;;;;;;1.24;100.00;90990.41;2085429;28;20021;-82
2022/04/01 04:06:34;;;;;;;19.55;12.80;;;;;;;1.19;100.00;90996.16;2099191;28;20099;-83
2022/04/01 04:07:36;;;;;;;24.10;13.95;;;;;;;1.19;100.00;90996.91;2111085;28;20019;-84
2022/04/01 04:08:38;;;;;;;23.52;13.80;;;;;;;1.13;100.00;90988.00;2095461;28;20054;-82
2022/04/01 04:09:40;;;;;;;18.58;11.85;;;;;;;1.32;100.00;90996.25;2098313;28;20071;-81
2022/04/01 04:10:42;;;;;;;20.60;13.23;;;;;;;1.20;100.00;90995.75;2086559;28;20498;-82
2022/04/01 04:11:44;;;;;;;19.20;13.35;;;;;;;1.21;100.00;90999.84;2087280;28;20211;-82
2022/04/01 04:12:46;;;;;;;19.95;12.80;;;;;;;1.36;100.00;90992.41;2083881;28;20037;-82
2022/04/01 04:13:49;;;;;;;20.52;13.70;;;;;;;1.39;100.00;91001.38;2093510;28;20024;-82
2022/04/01 04:14:52;;;;;;;20.15;12.88;;;;;;;1.51;100.00;90996.19;2089969;28;20025;-83
2022/04/01 04:16:18;;;;;;;18.85;12.55;;;;;;;1.48;100.00;91004.16;2094101;28;20024;-83
2022/04/01 04:17:41;;;;;;;19.80;11.75;;;;;;;1.35;100.00;90992.81;2102191;28;20385;-81
2022/04/01 04:18:52;;;;;;;18.60;11.75;;;;;;;1.16;100.00;90999.59;2083092;28;20810;-83
2022/04/01 04:20:01;;;;;;;19.13;11.85;;;;;;;1.28;100.00;91000.88;2089175;28;20025;-82
2022/04/01 04:21:15;;;;;;;23.38;11.95;;;;;;;1.22;100.00;91011.13;2100847;28;20037;-82
2022/04/01 04:22:29;;;;;;;18.25;11.45;;;;;;;1.15;100.00;91000.75;2097943;28;20012;-82
2022/04/01 04:23:35;;;;;;;17.75;11.95;;;;;;;1.19;100.00;90996.91;2084792;28;20434;-82
2022/04/01 04:24:52;;;;;;;22.92;11.90;;;;;;;1.06;100.00;91008.47;2082641;28;20633;-82
2022/04/01 04:26:04;;;;;;;19.25;12.63;;;;;;;1.13;100.00;90995.91;2092128;28;20020;-81
2022/04/01 04:27:11;;;;;;;18.70;12.80;;;;;;;1.17;100.00;90998.44;2086472;28;20018;-84
2022/04/01 04:28:21;;;;;;;18.58;12.55;;;;;;;1.17;100.00;91004.44;2082192;28;20060;-80
2022/04/01 04:29:25;;;;;;;21.35;12.70;;;;;;;1.21;100.00;90999.84;2079658;28;20117;-83
2022/04/01 04:30:34;;;;;;;15.65;11.60;;;;;;;1.29;100.00;91002.34;2075508;28;20022;-83
2022/04/01 04:31:59;;;;;;;23.45;12.15;;;;;;;1.17;100.00;91009.72;2093555;28;20600;-82
2022/04/01 04:33:06;;;;;;;20.83;11.55;;;;;;;1.29;100.00;91010.97;2090948;28;20040;-83
2022/04/01 04:34:11;;;;;;;17.45;11.90;;;;;;;1.18;100.00;91011.19;2089754;28;20032;-84
2022/04/01 04:35:12;;;;;;;19.35;12.15;;;;;;;1.12;100.00;91012.09;2097524;28;20078;-83
2022/04/01 04:36:17;;;;;;;18.80;12.55;;;;;;;1.20;100.00;91002.91;2093240;28;20441;-84
2022/04/01 04:37:22;;;;;;;19.30;13.02;;;;;;;1.05;100.00;91006.97;2089295;28;20028;-84
2022/04/01 04:38:26;;;;;;;22.55;12.85;;;;;;;1.11;100.00;91010.63;2091030;28;20056;-83
2022/04/01 04:39:32;;;;;;;30.17;12.70;;;;;;;0.95;100.00;91014.69;2092861;28;20024;-84
2022/04/01 04:40:36;;;;;;;19.02;13.10;;;;;;;1.03;100.00;91014.53;2098578;28;20021;-82
2022/04/01 04:41:38;;;;;;;18.73;12.73;;;;;;;1.11;100.00;91010.63;2098368;28;20036;-84
2022/04/01 04:42:47;;;;;;;75.47;12.55;;;;;;;1.05;100.00;91018.22;2089990;28;20493;-83
2022/04/01 04:43:50;;;;;;;20.30;11.75;;;;;;;0.95;100.00;91017.31;2091743;28;20027;-82
2022/04/01 04:44:53;;;;;;;21.08;12.27;;;;;;;0.86;100.00;91017.13;2090305;28;20110;-82
2022/04/01 04:45:58;;;;;;;21.48;11.75;;;;;;;0.84;100.00;91013.44;2081483;28;20063;-84
2022/04/01 04:47:02;;;;;;;18.98;11.75;;;;;;;0.88;100.00;91019.31;2074874;28;20034;-82
2022/04/01 04:48:04;;;;;;;19.17;12.30;;;;;;;0.87;100.00;91018.59;2089889;28;20649;-83
2022/04/01 04:49:06;;;;;;;45.35;12.02;;;;;;;0.74;100.00;91015.09;2091388;28;20025;-82
2022/04/01 04:50:08;;;;;;;41.05;11.18;;;;;;;0.79;100.00;91008.63;2097857;28;20024;-83
2022/04/01 04:51:09;;;;;;;59.83;11.43;;;;;;;0.90;100.00;91011.78;2097090;28;20025;-82
2022/04/01 04:52:12;;;;;;;33.70;11.48;;;;;;;0.88;100.00;91009.56;2089951;28;20021;-82
2022/04/01 04:53:14;;;;;;;24.30;11.00;;;;;;;0.94;100.00;91007.94;2089359;28;20482;-83
2022/04/01 04:54:17;;;;;;;39.90;10.70;;;;;;;0.87;100.00;91013.31;2085558;28;20024;-83
2022/04/01 04:55:18;;;;;;;61.25;10.93;;;;;;;0.82;100.00;91008.56;2085312;28;20025;-82
2022/04/01 04:56:20;;;;;;;29.60;10.73;;;;;;;0.86;100.00;91016.38;2093220;28;20024;-81